createdAt,value
2023-03-03T00:02:07.193Z,102534.41
2023-03-03T00:04:37.036Z,102543.60
2023-03-03T00:07:06.998Z,102533.39
2023-03-03T00:09:36.847Z,102533.39
2023-03-03T00:12:16.629Z,102540.94
2023-03-03T00:14:46.269Z,102535.97
2023-03-03T00:17:19.114Z,102544.61
2023-03-03T00:19:52.348Z,102536.05
2023-03-03T00:22:33.973Z,102536.09
2023-03-03T00:25:09.481Z,102541.69
2023-03-03T00:27:39.254Z,102541.69
2023-03-03T00:30:20.152Z,102544.00
2023-03-03T00:32:51.712Z,102538.99
2023-03-03T00:35:38.444Z,102538.60
2023-03-03T00:38:15.292Z,102539.88
2023-03-03T00:40:46.093Z,102542.51
2023-03-03T00:43:28.921Z,102542.83
2023-03-03T00:45:59.421Z,102542.83
2023-03-03T00:48:34.888Z,102546.86
2023-03-03T00:51:13.047Z,102542.02
2023-03-03T00:53:42.906Z,102542.02
2023-03-03T00:56:12.657Z,102553.66
2023-03-03T00:58:44.159Z,102547.52
2023-03-03T01:01:15.263Z,102550.22
2023-03-03T01:03:46.800Z,102550.06
2023-03-03T01:06:17.788Z,102550.06
2023-03-03T01:08:47.550Z,102544.83
2023-03-03T01:11:20.363Z,102561.63
2023-03-03T01:13:53.036Z,102563.58
2023-03-03T01:16:22.934Z,102565.92
2023-03-03T01:18:53.043Z,102556.91
2023-03-03T01:21:23.474Z,102563.56
2023-03-03T01:23:53.372Z,102562.53
2023-03-03T01:26:23.141Z,102559.16
2023-03-03T01:28:53.461Z,102559.16
2023-03-03T01:31:23.445Z,102564.70
2023-03-03T01:33:53.541Z,102562.92
2023-03-03T01:36:30.283Z,102559.70
2023-03-03T01:39:00.487Z,102557.58
2023-03-03T01:41:33.462Z,102567.81
2023-03-03T01:44:03.710Z,102572.60
2023-03-03T01:46:54.580Z,102560.83
2023-03-03T01:49:36.373Z,102565.98
2023-03-03T01:52:27.900Z,102577.30
2023-03-03T01:55:00.809Z,102577.15
2023-03-03T01:57:36.228Z,102570.28
2023-03-03T02:00:09.414Z,102570.79
2023-03-03T02:02:46.148Z,102573.14
2023-03-03T02:05:17.313Z,102573.14
2023-03-03T02:07:47.700Z,102555.93
2023-03-03T02:10:19.944Z,102580.31
2023-03-03T02:12:57.089Z,102572.55
2023-03-03T02:15:32.288Z,102576.11
2023-03-03T02:18:04.896Z,102575.04
2023-03-03T02:20:53.959Z,102575.14
2023-03-03T02:23:33.029Z,102575.08
2023-03-03T02:26:13.884Z,102573.48
2023-03-03T02:28:44.023Z,102573.02
2023-03-03T02:31:17.748Z,102573.91
2023-03-03T02:33:50.178Z,102577.83
2023-03-03T02:36:22.697Z,102581.55
2023-03-03T02:39:13.379Z,102581.55
2023-03-03T02:42:06.894Z,102582.80
2023-03-03T02:44:44.089Z,102576.64
2023-03-03T02:47:13.820Z,102570.03
2023-03-03T02:49:43.696Z,102570.55
2023-03-03T02:52:15.025Z,102570.30
2023-03-03T02:54:46.838Z,102571.39
2023-03-03T02:57:17.095Z,102564.64
2023-03-03T02:59:46.953Z,102574.42
2023-03-03T03:02:19.374Z,102568.47
2023-03-03T03:04:49.530Z,102568.47
2023-03-03T03:07:21.030Z,102571.09
2023-03-03T03:09:51.201Z,102569.37
2023-03-03T03:12:21.758Z,102576.71
2023-03-03T03:14:53.325Z,102577.84
2023-03-03T03:17:23.247Z,102573.53
2023-03-03T03:19:53.520Z,102572.81
2023-03-03T03:22:23.543Z,102572.30
2023-03-03T03:24:53.198Z,102584.89
2023-03-03T03:27:23.423Z,102575.84
2023-03-03T03:29:53.681Z,102575.84
2023-03-03T03:32:24.548Z,102573.35
2023-03-03T03:34:54.596Z,102573.35
2023-03-03T03:37:24.671Z,102569.09
2023-03-03T03:39:54.308Z,102571.53
2023-03-03T03:42:26.427Z,102573.16
2023-03-03T03:44:56.551Z,102574.55
2023-03-03T03:47:26.506Z,102578.48
2023-03-03T03:49:57.145Z,102580.25
2023-03-03T03:52:27.005Z,102573.16
2023-03-03T03:54:56.944Z,102577.59
2023-03-03T03:57:26.821Z,102577.59
2023-03-03T03:59:56.679Z,102581.22
2023-03-03T04:02:26.868Z,102574.25
2023-03-03T04:04:56.852Z,102574.66
2023-03-03T04:07:26.941Z,102577.23
2023-03-03T04:09:57.064Z,102581.88
2023-03-03T04:12:26.940Z,102578.41
2023-03-03T04:14:58.870Z,102582.27
2023-03-03T04:17:28.913Z,102587.03
2023-03-03T04:19:59.093Z,102586.06
2023-03-03T04:22:32.150Z,102585.20
2023-03-03T04:25:05.089Z,102582.90
2023-03-03T04:27:37.928Z,102571.95
2023-03-03T04:30:10.172Z,102579.20
2023-03-03T04:32:40.429Z,102576.34
2023-03-03T04:35:12.422Z,102579.27
2023-03-03T04:37:43.477Z,102579.27
2023-03-03T04:40:14.947Z,102584.28
2023-03-03T04:42:44.995Z,102579.58
2023-03-03T04:45:15.300Z,102582.27
2023-03-03T04:47:46.800Z,102582.28
2023-03-03T04:50:16.961Z,102585.94
2023-03-03T04:52:46.784Z,102589.92
2023-03-03T04:55:17.027Z,102589.92
2023-03-03T04:57:48.984Z,102585.45
2023-03-03T05:00:19.873Z,102589.67
2023-03-03T05:02:50.247Z,102591.61
2023-03-03T05:05:20.104Z,102597.43
2023-03-03T05:07:50.034Z,102597.43
2023-03-03T05:10:22.736Z,102590.43
2023-03-03T05:12:52.480Z,102598.48
2023-03-03T05:15:22.368Z,102594.37
2023-03-03T05:17:54.977Z,102600.66
2023-03-03T05:20:25.865Z,102607.48
2023-03-03T05:22:57.338Z,102602.55
2023-03-03T05:25:27.206Z,102610.19
2023-03-03T05:27:57.145Z,102607.55
2023-03-03T05:30:27.026Z,102613.56
2023-03-03T05:32:58.470Z,102612.96
2023-03-03T05:35:31.609Z,102617.03
2023-03-03T05:38:03.204Z,102609.86
2023-03-03T05:40:33.437Z,102603.39
2023-03-03T05:43:04.748Z,102605.79
2023-03-03T05:45:35.302Z,102603.37
2023-03-03T05:48:05.375Z,102604.99
2023-03-03T05:50:35.052Z,102605.66
2023-03-03T05:53:06.736Z,102605.17
2023-03-03T05:55:38.156Z,102605.13
2023-03-03T05:58:09.311Z,102605.81
2023-03-03T06:00:39.492Z,102604.88
2023-03-03T06:03:09.381Z,102607.26
2023-03-03T06:05:39.311Z,102606.42
2023-03-03T06:08:11.589Z,102610.36
2023-03-03T06:10:41.773Z,102607.26
2023-03-03T06:13:12.090Z,102610.19
2023-03-03T06:15:42.007Z,102615.45
2023-03-03T06:18:13.936Z,102619.16
2023-03-03T06:20:43.897Z,102624.11
2023-03-03T06:23:14.061Z,102628.07
2023-03-03T06:25:44.561Z,102630.49
2023-03-03T06:28:15.125Z,102625.95
2023-03-03T06:30:44.928Z,102628.48
2023-03-03T06:33:14.702Z,102637.04
2023-03-03T06:35:44.606Z,102637.00
2023-03-03T06:38:14.200Z,102635.81
2023-03-03T06:40:44.021Z,102640.92
2023-03-03T06:43:14.185Z,102640.00
2023-03-03T06:45:46.059Z,102647.27
2023-03-03T06:48:16.176Z,102649.16
2023-03-03T06:50:46.288Z,102649.16
2023-03-03T06:53:18.146Z,102650.39
2023-03-03T06:55:48.049Z,102662.41
2023-03-03T06:58:20.227Z,102671.84
2023-03-03T07:01:00.498Z,102668.80
2023-03-03T07:03:34.993Z,102660.58
2023-03-03T07:06:07.950Z,102662.23
2023-03-03T07:08:38.556Z,102665.49
2023-03-03T07:11:11.574Z,102668.97
2023-03-03T07:13:44.456Z,102679.87
2023-03-03T07:16:17.477Z,102679.32
2023-03-03T07:19:06.379Z,102682.47
2023-03-03T07:21:38.898Z,102680.19
2023-03-03T07:24:28.580Z,102693.52
2023-03-03T07:27:03.661Z,102691.91
2023-03-03T07:29:35.621Z,102692.80
2023-03-03T07:32:22.356Z,102698.14
2023-03-03T07:34:55.422Z,102698.14
2023-03-03T07:37:38.455Z,102696.55
2023-03-03T07:40:27.828Z,102701.91
2023-03-03T07:42:57.647Z,102700.17
2023-03-03T07:45:35.112Z,102708.95
2023-03-03T07:48:09.267Z,102706.23
2023-03-03T07:50:40.545Z,102705.95
2023-03-03T07:53:13.423Z,102709.70
2023-03-03T07:55:43.377Z,102710.95
2023-03-03T07:58:17.183Z,102710.86
2023-03-03T08:01:07.816Z,102712.16
2023-03-03T08:03:38.015Z,102709.62
2023-03-03T08:06:13.374Z,102716.48
2023-03-03T08:08:44.572Z,102719.23
2023-03-03T08:11:14.411Z,102730.33
2023-03-03T08:13:46.527Z,102724.95
2023-03-03T08:16:19.391Z,102730.88
2023-03-03T08:18:51.384Z,102731.09
2023-03-03T08:21:23.957Z,102736.58
2023-03-03T08:23:54.383Z,102720.64
2023-03-03T08:26:25.526Z,102720.64
2023-03-03T08:28:56.013Z,102735.30
2023-03-03T08:31:40.403Z,102738.55
2023-03-03T08:33:59.031Z,102737.92
2023-03-03T08:36:28.493Z,102743.28
2023-03-03T08:38:58.427Z,102742.85
2023-03-03T08:41:28.248Z,102750.44
2023-03-03T08:43:58.092Z,102745.91
2023-03-03T08:46:28.811Z,102749.11
2023-03-03T08:48:58.908Z,102746.95
2023-03-03T08:51:29.360Z,102748.19
2023-03-03T08:53:59.334Z,102751.80
2023-03-03T08:56:29.216Z,102759.02
2023-03-03T08:59:02.445Z,102748.72
2023-03-03T09:01:32.781Z,102752.55
2023-03-03T09:04:02.764Z,102754.06
2023-03-03T09:06:32.566Z,102748.92
2023-03-03T09:09:02.878Z,102756.18
2023-03-03T09:11:32.766Z,102762.11
2023-03-03T09:14:14.363Z,102761.07
2023-03-03T09:16:47.249Z,102809.19
2023-03-03T09:19:22.803Z,102741.13
2023-03-03T09:21:57.394Z,102763.19
2023-03-03T09:24:29.176Z,102765.22
2023-03-03T09:27:00.279Z,102756.67
2023-03-03T09:29:32.654Z,102765.47
2023-03-03T09:32:05.872Z,102761.27
2023-03-03T09:34:43.387Z,102765.86
2023-03-03T09:37:25.051Z,102761.61
2023-03-03T09:39:57.538Z,102759.05
2023-03-03T09:42:43.057Z,102760.93
2023-03-03T09:45:44.983Z,102763.25
2023-03-03T09:48:23.425Z,102771.41
2023-03-03T09:51:05.235Z,102770.27
2023-03-03T09:53:46.285Z,102777.64
2023-03-03T09:56:19.189Z,102769.44
2023-03-03T09:59:08.011Z,102771.87
2023-03-03T10:01:52.301Z,102774.88
2023-03-03T10:04:50.252Z,102778.72
2023-03-03T10:07:38.017Z,102774.19
2023-03-03T10:10:39.479Z,102774.31
2023-03-03T10:13:45.644Z,102775.92
2023-03-03T10:16:38.548Z,102769.00
2023-03-03T10:19:14.338Z,102777.53
2023-03-03T10:21:47.517Z,102778.13
2023-03-03T10:24:26.315Z,102785.48
2023-03-03T10:27:14.518Z,102776.01
2023-03-03T10:29:59.392Z,102778.90
2023-03-03T10:32:48.852Z,102782.89
2023-03-03T10:35:33.186Z,102782.89
2023-03-03T10:38:15.245Z,102777.77
2023-03-03T10:40:50.482Z,102777.77
2023-03-03T10:43:46.041Z,102773.61
2023-03-03T10:46:25.242Z,102779.85
2023-03-03T10:49:20.068Z,102779.77
2023-03-03T10:52:07.563Z,102765.03
2023-03-03T10:54:52.408Z,102765.03
2023-03-03T10:57:44.500Z,102765.50
2023-03-03T11:00:32.356Z,102761.20
2023-03-03T11:03:29.268Z,102760.91
2023-03-03T11:06:04.674Z,102762.59
2023-03-03T11:08:37.330Z,102760.81
2023-03-03T11:11:22.016Z,102761.27
2023-03-03T11:13:57.754Z,102758.09
2023-03-03T11:16:41.532Z,102759.98
2023-03-03T11:19:36.912Z,102756.99
2023-03-03T11:22:18.380Z,102760.48
2023-03-03T11:25:05.859Z,102761.06
2023-03-03T11:27:39.264Z,102751.14
2023-03-03T11:30:16.786Z,102750.95
2023-03-03T11:33:05.199Z,102748.95
2023-03-03T11:35:49.885Z,102744.58
2023-03-03T11:38:28.655Z,102719.88
2023-03-03T11:41:16.301Z,102747.06
2023-03-03T11:43:49.479Z,102733.14
2023-03-03T11:46:34.073Z,102733.50
2023-03-03T11:49:25.283Z,102744.69
2023-03-03T11:52:09.869Z,102732.83
2023-03-03T11:54:52.029Z,102732.71
2023-03-03T11:57:33.886Z,102731.00
2023-03-03T12:00:21.800Z,102732.20
2023-03-03T12:03:10.985Z,102727.31
2023-03-03T12:05:49.238Z,102719.59
2023-03-03T12:08:41.344Z,102729.50
2023-03-03T12:11:35.549Z,102728.37
2023-03-03T12:14:25.167Z,102725.25
2023-03-03T12:17:03.854Z,102716.53
2023-03-03T12:19:44.948Z,102720.16
2023-03-03T12:22:29.756Z,102716.20
2023-03-03T12:25:22.189Z,102712.66
2023-03-03T12:28:05.235Z,102705.66
2023-03-03T12:30:38.021Z,102703.57
2023-03-03T12:33:40.451Z,102704.73
2023-03-03T12:36:38.322Z,102702.95
2023-03-03T12:42:17.540Z,102688.79
2023-03-03T12:45:11.190Z,102681.38
2023-03-03T12:48:03.853Z,102682.38
2023-03-03T12:50:36.483Z,102681.59
2023-03-03T12:56:02.336Z,102668.64
2023-03-03T12:58:55.773Z,102674.09
2023-03-03T13:02:02.997Z,102666.02
2023-03-03T13:04:53.291Z,102668.48
2023-03-03T13:07:45.925Z,102665.52
2023-03-03T13:10:23.866Z,102659.34
2023-03-03T13:13:27.059Z,102657.69
2023-03-03T13:16:03.073Z,102662.72
2023-03-03T13:21:42.959Z,102651.03
2023-03-03T13:24:20.869Z,102655.92
2023-03-03T13:26:53.816Z,102638.81
2023-03-03T13:29:32.346Z,102638.81
2023-03-03T13:32:13.853Z,102656.84
2023-03-03T13:34:46.722Z,102652.41
2023-03-03T13:37:25.485Z,102652.41
2023-03-03T13:39:58.051Z,102645.58
2023-03-03T13:42:42.947Z,102651.15
2023-03-03T13:45:24.935Z,102646.86
2023-03-03T13:47:58.139Z,102643.08
2023-03-03T13:50:51.604Z,102637.63
2023-03-03T13:53:30.059Z,102639.86
2023-03-03T13:56:02.895Z,102635.59
2023-03-03T13:58:52.584Z,102635.72
2023-03-03T14:01:28.869Z,102636.52
2023-03-03T14:04:25.562Z,102635.52
2023-03-03T14:06:56.019Z,102632.17
2023-03-03T14:12:41.324Z,102632.50
2023-03-03T14:15:31.728Z,102622.08
2023-03-03T14:18:16.883Z,102626.30
2023-03-03T14:20:54.380Z,102626.30
2023-03-03T14:23:30.517Z,102620.39
2023-03-03T14:26:11.568Z,102620.39
2023-03-03T14:28:45.165Z,102614.59
2023-03-03T14:31:23.540Z,102610.39
2023-03-03T14:34:05.625Z,102607.53
2023-03-03T14:36:38.499Z,102607.53
2023-03-03T14:39:29.040Z,102608.53
2023-03-03T14:41:59.397Z,102608.39
2023-03-03T14:44:34.020Z,102597.09
2023-03-03T14:47:29.042Z,102597.09
2023-03-03T14:50:03.721Z,102594.06
2023-03-03T14:52:35.838Z,102600.16
2023-03-03T14:55:10.501Z,102602.08
2023-03-03T14:57:47.021Z,102602.08
2023-03-03T15:00:22.824Z,102595.38
2023-03-03T15:03:06.585Z,102599.98
2023-03-03T15:05:36.561Z,102591.06
2023-03-03T15:08:09.665Z,102598.20
2023-03-03T15:10:46.733Z,102592.83
2023-03-03T15:13:29.208Z,102592.05
2023-03-03T15:16:05.235Z,102589.85
2023-03-03T15:18:35.564Z,102585.27
2023-03-03T15:21:20.240Z,102580.61
2023-03-03T15:23:59.297Z,102587.35
2023-03-03T15:26:50.089Z,102587.66
2023-03-03T15:29:35.248Z,102577.77
2023-03-03T15:32:24.512Z,102577.77
2023-03-03T15:34:59.320Z,102570.83
2023-03-03T15:37:39.039Z,102570.83
2023-03-03T15:40:19.329Z,102566.70
2023-03-03T15:42:58.257Z,102569.06
2023-03-03T15:45:48.233Z,102569.06
2023-03-03T15:48:45.089Z,102575.84
2023-03-03T15:51:15.375Z,102573.07
2023-03-03T15:53:56.247Z,102566.16
2023-03-03T15:56:49.754Z,102564.20
2023-03-03T15:59:47.918Z,102571.62
2023-03-03T16:02:26.673Z,102569.73
2023-03-03T16:05:17.440Z,102566.56
2023-03-03T16:08:08.262Z,102569.88
2023-03-03T16:11:06.595Z,102564.13
2023-03-03T16:16:57.939Z,102568.86
2023-03-03T16:19:47.116Z,102567.75
2023-03-03T16:22:33.508Z,102576.63
2023-03-03T16:25:09.083Z,102573.53
2023-03-03T16:28:02.558Z,102582.38
2023-03-03T16:30:59.021Z,102582.38
2023-03-03T16:33:41.614Z,102587.11
2023-03-03T16:36:19.775Z,102587.11
2023-03-03T16:39:12.786Z,102595.03
2023-03-03T16:41:45.657Z,102596.20
2023-03-03T16:44:20.320Z,102600.98
2023-03-03T16:46:53.369Z,102601.45
2023-03-03T16:49:31.377Z,102598.14
2023-03-03T16:52:16.119Z,102600.31
2023-03-03T16:54:50.898Z,102604.36
2023-03-03T16:57:35.480Z,102611.66
2023-03-03T17:03:06.052Z,102616.72
2023-03-03T17:05:44.788Z,102610.23
2023-03-03T17:08:30.102Z,102610.58
2023-03-03T17:11:28.392Z,102614.54
2023-03-03T17:14:01.544Z,102616.92
2023-03-03T17:16:52.677Z,102617.07
2023-03-03T17:19:41.643Z,102622.25
2023-03-03T17:22:17.261Z,102622.98
2023-03-03T17:25:08.342Z,102629.99
2023-03-03T17:27:47.047Z,102629.69
2023-03-03T17:30:37.814Z,102634.56
2023-03-03T17:33:12.510Z,102631.75
2023-03-03T17:35:59.920Z,102634.97
2023-03-03T17:39:01.437Z,102643.56
2023-03-03T17:41:37.123Z,102648.05
2023-03-03T17:44:25.020Z,102647.70
2023-03-03T17:47:02.982Z,102655.50
2023-03-03T17:49:47.406Z,102659.17
2023-03-03T17:52:34.741Z,102659.77
2023-03-03T17:55:29.442Z,102659.77
2023-03-03T17:58:08.899Z,102673.52
2023-03-03T18:01:03.768Z,102673.52
2023-03-03T18:03:39.439Z,102669.13
2023-03-03T18:06:17.792Z,102670.98
2023-03-03T18:09:14.451Z,102679.56
2023-03-03T18:11:45.879Z,102679.56
2023-03-03T18:14:21.491Z,102678.63
2023-03-03T18:17:02.939Z,102685.59
2023-03-03T18:20:01.378Z,102685.96
2023-03-03T18:22:34.696Z,102682.98
2023-03-03T18:25:24.307Z,102682.98
2023-03-03T18:28:05.916Z,102684.29
2023-03-03T18:30:55.246Z,102684.46
2023-03-03T18:33:46.251Z,102684.25
2023-03-03T18:36:31.958Z,102691.31
2023-03-03T18:39:05.043Z,102695.14
2023-03-03T18:41:37.539Z,102694.70
2023-03-03T18:44:28.385Z,102695.74
2023-03-03T18:46:58.928Z,102690.81
2023-03-03T18:49:57.610Z,102694.17
2023-03-03T18:52:30.634Z,102690.61
2023-03-03T18:55:12.270Z,102690.77
2023-03-03T18:57:47.116Z,102698.92
2023-03-03T19:00:20.249Z,102696.10
2023-03-03T19:02:55.945Z,102695.95
2023-03-03T19:05:40.252Z,102694.25
2023-03-03T19:08:19.345Z,102696.86
2023-03-03T19:11:02.970Z,102701.92
2023-03-03T19:13:38.226Z,102694.56
2023-03-03T19:16:31.973Z,102698.31
2023-03-03T19:19:04.627Z,102698.59
2023-03-03T19:21:39.426Z,102702.13
2023-03-03T19:24:28.527Z,102708.74
2023-03-03T19:27:16.299Z,102708.24
2023-03-03T19:29:49.257Z,102708.24
2023-03-03T19:32:38.007Z,102716.60
2023-03-03T19:35:37.817Z,102716.60
2023-03-03T19:38:34.581Z,102710.52
2023-03-03T19:41:25.013Z,102706.84
2023-03-03T19:44:27.584Z,102697.81
2023-03-03T19:47:06.400Z,102704.39
2023-03-03T19:49:55.708Z,102706.45
2023-03-03T19:52:43.435Z,102706.45
2023-03-03T19:55:38.433Z,102709.06
2023-03-03T19:58:30.984Z,102706.45
2023-03-03T20:01:25.524Z,102708.74
2023-03-03T20:04:25.193Z,102699.56
2023-03-03T20:07:17.026Z,102709.70
2023-03-03T20:09:58.839Z,102708.99
2023-03-03T20:12:53.942Z,102711.31
2023-03-03T20:15:46.767Z,102714.59
2023-03-03T20:18:39.173Z,102715.99
2023-03-03T20:21:20.922Z,102718.97
2023-03-03T20:24:20.255Z,102722.49
2023-03-03T20:27:16.720Z,102720.80
2023-03-03T20:30:19.248Z,102720.73
2023-03-03T20:32:57.914Z,102722.77
2023-03-03T20:35:42.558Z,102722.77
2023-03-03T20:38:33.418Z,102721.48
2023-03-03T20:41:25.460Z,102728.69
2023-03-03T20:44:12.255Z,102731.59
2023-03-03T20:46:56.966Z,102734.75
2023-03-03T20:49:41.691Z,102731.77
2023-03-03T20:52:32.819Z,102732.73
2023-03-03T20:55:14.304Z,102725.63
2023-03-03T20:57:56.204Z,102726.88
2023-03-03T21:00:31.245Z,102731.63
2023-03-03T21:03:06.822Z,102723.38
2023-03-03T21:05:38.228Z,102724.63
2023-03-03T21:08:08.166Z,102725.98
2023-03-03T21:10:42.211Z,102728.06
2023-03-03T21:13:39.034Z,102723.92
2023-03-03T21:16:17.068Z,102725.59
2023-03-03T21:19:05.667Z,102724.98
2023-03-03T21:21:37.993Z,102724.56
2023-03-03T21:24:08.885Z,102720.95
2023-03-03T21:26:58.898Z,102721.81
2023-03-03T21:29:34.553Z,102728.23
2023-03-03T21:32:11.628Z,102715.62
2023-03-03T21:34:43.484Z,102720.67
2023-03-03T21:37:15.931Z,102714.49
2023-03-03T21:39:46.154Z,102721.05
2023-03-03T21:42:20.485Z,102723.22
2023-03-03T21:44:51.757Z,102720.59
2023-03-03T21:47:24.326Z,102717.09
2023-03-03T21:49:54.130Z,102722.56
2023-03-03T21:52:23.947Z,102725.55
2023-03-03T21:54:53.837Z,102721.30
2023-03-03T21:57:25.141Z,102720.09
2023-03-03T21:59:55.247Z,102718.94
2023-03-03T22:02:25.005Z,102713.72
2023-03-03T22:04:54.599Z,102714.36
2023-03-03T22:07:24.681Z,102717.55
2023-03-03T22:09:54.582Z,102711.72
2023-03-03T22:12:24.344Z,102708.83
2023-03-03T22:14:54.105Z,102705.56
2023-03-03T22:17:25.474Z,102699.98
2023-03-03T22:19:55.816Z,102696.17
2023-03-03T22:22:25.575Z,102698.45
2023-03-03T22:24:55.410Z,102704.49
2023-03-03T22:27:25.158Z,102700.35
2023-03-03T22:29:54.986Z,102704.70
2023-03-03T22:32:24.815Z,102705.39
2023-03-03T22:34:54.676Z,102699.81
2023-03-03T22:37:24.431Z,102699.42
2023-03-03T22:39:54.516Z,102704.95
2023-03-03T22:42:25.047Z,102705.64
2023-03-03T22:44:54.809Z,102704.45
2023-03-03T22:47:24.651Z,102702.39
2023-03-03T22:49:54.405Z,102704.31
2023-03-03T22:52:24.213Z,102704.20
2023-03-03T22:54:54.368Z,102703.99
2023-03-03T22:57:24.486Z,102703.99
2023-03-03T22:59:54.532Z,102699.92
2023-03-03T23:02:24.328Z,102710.30
2023-03-03T23:04:56.115Z,102712.14
2023-03-03T23:07:26.455Z,102703.56
2023-03-03T23:09:57.225Z,102708.95
2023-03-03T23:12:27.243Z,102711.37
2023-03-03T23:14:57.305Z,102703.31
2023-03-03T23:17:27.448Z,102712.28
2023-03-03T23:19:57.190Z,102705.63
2023-03-03T23:22:27.209Z,102711.42
2023-03-03T23:24:57.013Z,102707.20
2023-03-03T23:27:26.636Z,102710.53
2023-03-03T23:29:56.522Z,102706.85
2023-03-03T23:32:26.576Z,102702.03
2023-03-03T23:34:56.386Z,102701.56
2023-03-03T23:37:26.214Z,102704.64
2023-03-03T23:39:55.757Z,102703.41
2023-03-03T23:42:29.830Z,102702.06
2023-03-03T23:44:59.893Z,102707.27
2023-03-03T23:47:29.708Z,102702.56
2023-03-03T23:49:59.838Z,102706.03
2023-03-03T23:52:29.740Z,102703.27
2023-03-03T23:54:59.603Z,102706.03
2023-03-03T23:57:29.560Z,102709.93
2023-03-03T23:59:59.364Z,102709.93
